createdAt,value
2018-12-31T00:00:06.288Z,101056.54
2018-12-31T00:02:32.397Z,101061.24
2018-12-31T00:04:58.477Z,101059.45
2018-12-31T00:07:24.810Z,101056.11
2018-12-31T00:09:51.219Z,101062.03
2018-12-31T00:12:17.284Z,101060.16
2018-12-31T00:14:43.397Z,101065.05
2018-12-31T00:17:09.466Z,101071.09
2018-12-31T00:19:35.580Z,101069.16
2018-12-31T00:22:01.962Z,101075.65
2018-12-31T00:24:28.006Z,101071.80
2018-12-31T00:26:54.007Z,101071.59
2018-12-31T00:29:21.766Z,101076.34
2018-12-31T00:31:48.234Z,101082.22
2018-12-31T00:34:14.548Z,101077.28
2018-12-31T00:36:40.986Z,101083.23
2018-12-31T00:39:07.045Z,101081.56
2018-12-31T00:41:33.071Z,101087.70
2018-12-31T00:43:59.453Z,101083.28
2018-12-31T00:46:25.466Z,101095.19
2018-12-31T00:48:51.821Z,101091.59
2018-12-31T00:51:17.886Z,101089.00
2018-12-31T00:53:44.277Z,101091.47
2018-12-31T00:56:10.354Z,101100.55
2018-12-31T00:58:36.738Z,101111.59
2018-12-31T01:01:02.826Z,101124.39
2018-12-31T01:03:28.929Z,101123.02
2018-12-31T01:05:54.947Z,101124.80
2018-12-31T01:08:21.322Z,101123.17
2018-12-31T01:10:47.677Z,101130.71
2018-12-31T01:13:13.784Z,101122.88
2018-12-31T01:15:39.869Z,101119.89
2018-12-31T01:18:06.011Z,101123.23
2018-12-31T01:20:32.107Z,101114.50
2018-12-31T01:22:58.129Z,101115.91
2018-12-31T01:25:24.538Z,101123.02
2018-12-31T01:27:50.651Z,101115.16
2018-12-31T01:30:17.001Z,101111.80
2018-12-31T01:32:43.085Z,101111.59
2018-12-31T01:35:09.128Z,101112.92
2018-12-31T01:37:35.259Z,101107.44
2018-12-31T01:40:01.333Z,101103.39
2018-12-31T01:42:27.729Z,101102.17
2018-12-31T01:44:54.200Z,101101.78
2018-12-31T01:47:20.610Z,101104.91
2018-12-31T01:49:46.926Z,101101.13
2018-12-31T01:52:13.256Z,101105.81
2018-12-31T01:54:39.336Z,101112.92
2018-12-31T01:57:05.702Z,101113.96
2018-12-31T01:59:32.044Z,101109.97
2018-12-31T02:01:58.117Z,101103.48
2018-12-31T02:04:24.523Z,101107.48
2018-12-31T02:06:50.968Z,101117.08
2018-12-31T02:09:16.970Z,101113.03
2018-12-31T02:11:42.992Z,101113.96
2018-12-31T02:14:09.389Z,101112.20
2018-12-31T02:16:35.837Z,101111.52
2018-12-31T02:19:02.182Z,101108.28
2018-12-31T02:21:28.606Z,101106.27
2018-12-31T02:23:54.642Z,101111.95
2018-12-31T02:26:21.081Z,101116.05
2018-12-31T02:28:47.820Z,101113.25
2018-12-31T02:31:13.918Z,101115.59
2018-12-31T02:33:40.008Z,101115.09
2018-12-31T02:36:06.403Z,101113.00
2018-12-31T02:38:32.823Z,101116.42
2018-12-31T02:40:58.904Z,101130.97
2018-12-31T02:43:25.283Z,101140.48
2018-12-31T02:45:51.295Z,101137.74
2018-12-31T02:48:17.346Z,101143.23
2018-12-31T02:50:43.417Z,101141.06
2018-12-31T02:53:09.424Z,101135.98
2018-12-31T02:55:35.840Z,101133.27
2018-12-31T02:58:01.968Z,101122.34
2018-12-31T03:00:41.214Z,101124.44
2018-12-31T03:03:07.343Z,101130.89
2018-12-31T03:05:33.447Z,101129.38
2018-12-31T03:07:59.857Z,101128.61
2018-12-31T03:10:25.893Z,101131.25
2018-12-31T03:12:51.961Z,101124.14
2018-12-31T03:15:18.338Z,101125.81
2018-12-31T03:17:44.365Z,101123.68
2018-12-31T03:20:10.371Z,101132.41
2018-12-31T03:22:36.417Z,101130.23
2018-12-31T03:25:02.796Z,101121.80
2018-12-31T03:27:28.865Z,101119.53
2018-12-31T03:29:54.882Z,101116.92
2018-12-31T03:32:21.005Z,101117.15
2018-12-31T03:34:47.350Z,101130.06
2018-12-31T03:37:13.374Z,101135.91
2018-12-31T03:39:39.824Z,101134.82
2018-12-31T03:42:06.262Z,101138.36
2018-12-31T03:44:32.335Z,101142.07
2018-12-31T03:46:58.721Z,101134.14
2018-12-31T03:49:25.144Z,101134.25
2018-12-31T03:51:51.177Z,101135.91
2018-12-31T03:54:17.300Z,101144.20
2018-12-31T03:56:43.405Z,101149.47
2018-12-31T03:59:09.425Z,101145.32
2018-12-31T04:01:35.866Z,101141.45
2018-12-31T04:04:01.882Z,101142.72
2018-12-31T04:06:27.966Z,101137.02
2018-12-31T04:08:54.301Z,101143.45
2018-12-31T04:11:20.321Z,101147.59
2018-12-31T04:13:46.417Z,101160.22
2018-12-31T04:16:12.826Z,101145.53
2018-12-31T04:18:39.180Z,101136.48
2018-12-31T04:21:05.255Z,101143.38
2018-12-31T04:23:31.681Z,101146.73
2018-12-31T04:25:57.768Z,101150.55
2018-12-31T04:28:24.188Z,101153.33
2018-12-31T04:30:50.566Z,101153.94
2018-12-31T04:33:16.557Z,101157.77
2018-12-31T04:35:42.581Z,101161.27
2018-12-31T04:38:08.994Z,101161.70
2018-12-31T04:40:35.349Z,101158.63
2018-12-31T04:43:01.393Z,101160.19
2018-12-31T04:45:27.882Z,101156.50
2018-12-31T04:47:53.949Z,101159.28
2018-12-31T04:50:20.340Z,101156.83
2018-12-31T04:52:46.354Z,101160.69
2018-12-31T04:55:12.813Z,101156.97
2018-12-31T04:57:38.896Z,101165.52
2018-12-31T05:00:04.996Z,101160.89
2018-12-31T05:02:31.053Z,101168.34
2018-12-31T05:04:57.086Z,101161.84
2018-12-31T05:07:23.880Z,101162.06
2018-12-31T05:09:49.965Z,101150.87
2018-12-31T05:12:16.514Z,101154.81
2018-12-31T05:14:42.619Z,101165.70
2018-12-31T05:17:08.704Z,101166.92
2018-12-31T05:19:34.986Z,101173.17
2018-12-31T05:22:01.030Z,101172.70
2018-12-31T05:24:27.137Z,101162.17
2018-12-31T05:26:53.510Z,101163.07
2018-12-31T05:29:19.924Z,101157.19
2018-12-31T05:31:46.013Z,101158.59
2018-12-31T05:34:12.085Z,101162.92
2018-12-31T05:36:38.105Z,101165.23
2018-12-31T05:39:04.455Z,101168.41
2018-12-31T05:41:30.930Z,101174.43
2018-12-31T05:43:57.014Z,101176.34
2018-12-31T05:46:23.521Z,101164.84
2018-12-31T05:48:49.632Z,101166.28
2018-12-31T05:51:15.718Z,101162.70
2018-12-31T05:53:42.204Z,101161.80
2018-12-31T05:56:08.224Z,101166.49
2018-12-31T05:58:34.319Z,101171.00
2018-12-31T06:01:00.783Z,101175.41
2018-12-31T06:03:27.217Z,101173.17
2018-12-31T06:05:53.653Z,101173.42
2018-12-31T06:08:19.983Z,101169.13
2018-12-31T06:10:46.140Z,101174.36
2018-12-31T06:13:12.250Z,101170.94
2018-12-31T06:15:38.320Z,101167.98
2018-12-31T06:18:04.808Z,101173.92
2018-12-31T06:20:30.805Z,101172.48
2018-12-31T06:22:57.175Z,101181.44
2018-12-31T06:25:23.285Z,101173.53
2018-12-31T06:27:49.730Z,101182.01
2018-12-31T06:30:16.145Z,101183.34
2018-12-31T06:32:42.236Z,101177.21
2018-12-31T06:35:08.672Z,101185.30
2018-12-31T06:37:34.733Z,101184.10
2018-12-31T06:40:00.785Z,101191.97
2018-12-31T06:42:27.190Z,101186.13
2018-12-31T06:44:53.622Z,101199.19
2018-12-31T06:47:20.056Z,101195.61
2018-12-31T06:49:46.152Z,101202.14
2018-12-31T06:52:12.246Z,101203.91
2018-12-31T06:54:38.652Z,101216.69
2018-12-31T06:57:04.729Z,101222.20
2018-12-31T06:59:31.204Z,101227.05
2018-12-31T07:01:57.637Z,101227.38
2018-12-31T07:04:23.734Z,101227.12
2018-12-31T07:06:50.107Z,101219.33
2018-12-31T07:09:16.513Z,101223.62
2018-12-31T07:11:42.864Z,101220.80
2018-12-31T07:14:08.932Z,101214.70
2018-12-31T07:21:39.347Z,101229.47
2018-12-31T07:24:05.434Z,101236.28
2018-12-31T07:26:31.518Z,101243.00
2018-12-31T07:28:57.637Z,101240.90
2018-12-31T07:31:24.042Z,101239.42
2018-12-31T07:33:50.077Z,101253.04
2018-12-31T07:36:16.519Z,101260.11
2018-12-31T07:38:42.590Z,101262.02
2018-12-31T07:41:08.707Z,101255.19
2018-12-31T07:43:34.773Z,101258.94
2018-12-31T07:46:00.847Z,101258.41
2018-12-31T07:48:26.950Z,101257.52
2018-12-31T07:50:53.473Z,101255.88
2018-12-31T07:53:19.588Z,101254.87
2018-12-31T07:55:45.669Z,101255.45
2018-12-31T07:58:11.700Z,101252.17
2018-12-31T08:00:38.304Z,101258.23
2018-12-31T08:03:04.714Z,101246.86
2018-12-31T08:05:31.026Z,101252.23
2018-12-31T08:07:57.388Z,101251.73
2018-12-31T08:10:23.545Z,101248.45
2018-12-31T08:12:49.633Z,101253.80
2018-12-31T08:15:18.356Z,101257.88
2018-12-31T08:17:44.774Z,101251.27
2018-12-31T08:20:10.849Z,101260.43
2018-12-31T08:22:37.309Z,101261.48
2018-12-31T08:25:03.382Z,101257.44
2018-12-31T08:27:29.560Z,101254.05
2018-12-31T08:29:55.623Z,101269.12
2018-12-31T08:32:22.009Z,101270.32
2018-12-31T08:34:48.046Z,101266.56
2018-12-31T08:37:14.122Z,101271.59
2018-12-31T08:39:40.518Z,101269.12
2018-12-31T08:42:06.913Z,101264.97
2018-12-31T08:44:33.036Z,101262.68
2018-12-31T08:46:59.327Z,101272.33
2018-12-31T08:49:25.407Z,101264.52
2018-12-31T08:51:51.884Z,101274.75
2018-12-31T08:54:17.932Z,101275.30
2018-12-31T08:56:44.015Z,101274.52
2018-12-31T08:59:10.137Z,101271.07
2018-12-31T09:01:36.563Z,101272.23
2018-12-31T09:04:02.630Z,101271.19
2018-12-31T09:06:28.877Z,101271.53
2018-12-31T09:08:54.905Z,101272.16
2018-12-31T09:11:24.643Z,101274.33
2018-12-31T09:13:51.005Z,101278.32
2018-12-31T09:16:17.049Z,101278.59
2018-12-31T09:18:43.125Z,101270.56
2018-12-31T09:21:09.636Z,101280.28
2018-12-31T09:23:36.073Z,101285.14
2018-12-31T09:26:02.160Z,101281.19
2018-12-31T09:28:28.518Z,101276.44
2018-12-31T09:30:54.876Z,101281.75
2018-12-31T09:33:20.960Z,101282.49
2018-12-31T09:35:47.102Z,101275.02
2018-12-31T09:38:13.633Z,101275.43
2018-12-31T09:40:39.710Z,101276.81
2018-12-31T09:43:06.478Z,101266.75
2018-12-31T09:45:32.769Z,101269.41
2018-12-31T09:47:58.841Z,101275.48
2018-12-31T09:50:25.242Z,101266.51
2018-12-31T09:52:51.687Z,101260.95
2018-12-31T09:55:18.090Z,101263.02
2018-12-31T09:57:44.541Z,101261.47
2018-12-31T10:00:11.031Z,101263.85
2018-12-31T10:02:37.304Z,101258.66
2018-12-31T10:05:03.412Z,101259.16
2018-12-31T10:07:29.550Z,101261.41
2018-12-31T10:09:55.570Z,101254.72
2018-12-31T10:12:21.809Z,101261.47
2018-12-31T10:14:47.824Z,101262.73
2018-12-31T10:17:14.311Z,101258.01
2018-12-31T10:19:40.494Z,101261.09
2018-12-31T10:22:15.022Z,101254.09
2018-12-31T10:24:41.134Z,101251.94
2018-12-31T10:27:07.610Z,101254.95
2018-12-31T10:29:36.255Z,101259.64
2018-12-31T10:32:01.473Z,101261.20
2018-12-31T10:34:27.508Z,101252.57
2018-12-31T10:36:53.609Z,101258.03
2018-12-31T10:39:19.677Z,101252.82
2018-12-31T10:41:45.701Z,101249.06
2018-12-31T10:44:11.777Z,101246.10
2018-12-31T10:46:37.884Z,101248.26
2018-12-31T10:49:04.357Z,101240.75
2018-12-31T10:51:30.365Z,101237.62
2018-12-31T10:53:56.471Z,101244.28
2018-12-31T10:56:22.549Z,101241.52
2018-12-31T10:58:48.573Z,101240.48
2018-12-31T11:01:15.039Z,101234.38
2018-12-31T11:03:42.077Z,101238.53
2018-12-31T11:06:08.251Z,101227.92
2018-12-31T11:08:34.333Z,101232.74
2018-12-31T11:11:00.733Z,101231.85
2018-12-31T11:13:27.251Z,101232.83
2018-12-31T11:15:53.297Z,101226.73
2018-12-31T11:18:19.394Z,101225.44
2018-12-31T11:20:45.398Z,101219.59
2018-12-31T11:23:11.465Z,101219.35
2018-12-31T11:25:37.861Z,101218.49
2018-12-31T11:28:03.990Z,101223.47
2018-12-31T11:30:31.181Z,101228.14
2018-12-31T11:32:57.568Z,101228.08
2018-12-31T11:35:23.664Z,101227.20
2018-12-31T11:37:49.746Z,101221.98
2018-12-31T11:40:16.099Z,101219.83
2018-12-31T11:42:42.179Z,101214.34
2018-12-31T11:45:08.264Z,101223.74
2018-12-31T11:47:34.382Z,101222.45
2018-12-31T11:50:00.524Z,101225.41
2018-12-31T11:52:26.705Z,101221.88
2018-12-31T11:54:52.771Z,101217.55
2018-12-31T11:57:21.226Z,101213.72
2018-12-31T11:59:47.243Z,101214.66
2018-12-31T12:02:13.447Z,101208.80
2018-12-31T12:04:39.807Z,101203.61
2018-12-31T12:07:06.380Z,101196.44
2018-12-31T12:09:32.766Z,101189.74
2018-12-31T12:11:59.109Z,101191.75
2018-12-31T12:14:25.478Z,101188.33
2018-12-31T12:16:52.211Z,101191.51
2018-12-31T12:19:18.322Z,101191.81
2018-12-31T12:21:44.460Z,101195.80
2018-12-31T12:24:10.984Z,101192.94
2018-12-31T12:26:37.324Z,101192.94
2018-12-31T12:29:03.459Z,101187.73
2018-12-31T12:31:30.385Z,101191.02
2018-12-31T12:33:57.137Z,101187.25
2018-12-31T12:36:23.542Z,101191.95
2018-12-31T12:38:49.912Z,101193.92
2018-12-31T12:41:16.019Z,101192.59
2018-12-31T12:43:42.753Z,101189.92
2018-12-31T12:46:10.204Z,101190.95
2018-12-31T12:48:36.186Z,101192.82
2018-12-31T12:51:02.566Z,101192.62
2018-12-31T12:53:28.813Z,101198.81
2018-12-31T12:56:00.345Z,101199.77
2018-12-31T12:58:26.773Z,101205.69
2018-12-31T13:00:52.798Z,101208.66
2018-12-31T13:03:18.914Z,101199.98
2018-12-31T13:05:45.397Z,101202.70
2018-12-31T13:08:11.807Z,101194.52
2018-12-31T13:10:37.974Z,101194.00
2018-12-31T13:13:04.373Z,101196.66
2018-12-31T13:15:31.012Z,101198.39
2018-12-31T13:17:57.114Z,101196.85
2018-12-31T13:20:23.198Z,101195.61
2018-12-31T13:22:49.289Z,101201.20
2018-12-31T13:25:15.698Z,101206.93
2018-12-31T13:27:42.151Z,101208.61
2018-12-31T13:30:10.459Z,101205.69
2018-12-31T13:32:36.383Z,101200.87
2018-12-31T13:35:02.754Z,101202.63
2018-12-31T13:37:29.120Z,101193.97
2018-12-31T13:39:55.221Z,101195.45
2018-12-31T13:42:21.656Z,101191.41
2018-12-31T13:44:48.224Z,101191.23
2018-12-31T13:47:14.344Z,101196.02
2018-12-31T13:49:40.450Z,101185.95
2018-12-31T13:52:06.882Z,101186.75
2018-12-31T13:54:33.063Z,101185.03
2018-12-31T13:59:31.403Z,101189.15
2018-12-31T14:01:58.163Z,101197.09
2018-12-31T14:04:24.678Z,101197.56
2018-12-31T14:06:50.711Z,101190.39
2018-12-31T14:09:17.054Z,101191.81
2018-12-31T14:11:43.576Z,101192.50
2018-12-31T14:14:10.306Z,101197.83
2018-12-31T14:16:36.819Z,101193.78
2018-12-31T14:19:02.888Z,101195.08
2018-12-31T14:21:29.334Z,101188.77
2018-12-31T14:23:55.432Z,101187.59
2018-12-31T14:26:21.861Z,101190.17
2018-12-31T14:28:48.478Z,101194.00
2018-12-31T14:31:14.575Z,101197.09
2018-12-31T14:33:40.646Z,101198.14
2018-12-31T14:36:06.792Z,101196.50
2018-12-31T14:38:33.432Z,101193.34
2018-12-31T14:40:59.858Z,101201.62
2018-12-31T14:43:26.302Z,101208.81
2018-12-31T14:45:52.718Z,101210.54
2018-12-31T14:48:19.181Z,101210.16
2018-12-31T14:50:45.265Z,101216.71
2018-12-31T14:53:11.355Z,101214.02
2018-12-31T14:55:37.490Z,101211.59
2018-12-31T14:58:03.666Z,101209.90
2018-12-31T15:00:29.995Z,101205.10
2018-12-31T15:02:56.016Z,101212.41
2018-12-31T15:05:22.457Z,101204.05
2018-12-31T15:07:48.597Z,101214.18
2018-12-31T15:10:15.017Z,101217.09
2018-12-31T15:12:41.450Z,101221.72
2018-12-31T15:15:07.522Z,101225.84
2018-12-31T15:20:07.732Z,101217.13
2018-12-31T15:22:34.004Z,101217.16
2018-12-31T15:25:00.162Z,101207.41
2018-12-31T15:27:32.941Z,101209.51
2018-12-31T15:29:58.974Z,101222.20
2018-12-31T15:32:25.073Z,101214.84
2018-12-31T15:34:51.142Z,101211.41
2018-12-31T15:37:17.956Z,101212.98
2018-12-31T15:39:45.111Z,101211.95
2018-12-31T15:42:11.503Z,101204.73
2018-12-31T15:44:38.042Z,101216.09
2018-12-31T15:47:04.417Z,101220.72
2018-12-31T15:49:30.905Z,101213.53
2018-12-31T15:51:59.363Z,101211.17
2018-12-31T15:54:29.798Z,101213.28
2018-12-31T15:56:56.148Z,101227.26
2018-12-31T15:59:23.339Z,101217.30
2018-12-31T16:01:49.466Z,101224.20
2018-12-31T16:04:16.155Z,101223.89
2018-12-31T16:06:56.639Z,101217.61
2018-12-31T16:09:22.797Z,101221.50
2018-12-31T16:11:51.239Z,101217.22
2018-12-31T16:14:17.257Z,101223.25
2018-12-31T16:16:43.344Z,101217.53
2018-12-31T16:19:09.436Z,101215.58
2018-12-31T16:21:35.502Z,101215.48
2018-12-31T16:24:01.685Z,101215.63
2018-12-31T16:26:29.872Z,101204.30
2018-12-31T16:28:56.024Z,101205.73
2018-12-31T16:31:22.553Z,101208.67
2018-12-31T16:33:48.997Z,101216.95
2018-12-31T16:36:15.415Z,101217.30
2018-12-31T16:38:41.805Z,101229.27
2018-12-31T16:41:08.036Z,101218.66
2018-12-31T16:43:34.110Z,101207.84
2018-12-31T16:46:00.226Z,101206.31
2018-12-31T16:48:26.366Z,101214.43
2018-12-31T16:50:55.053Z,101210.58
2018-12-31T16:53:22.386Z,101201.94
2018-12-31T16:58:25.309Z,101205.34
2018-12-31T17:00:51.414Z,101201.56
2018-12-31T17:03:17.547Z,101203.09
2018-12-31T17:05:44.006Z,101210.97
2018-12-31T17:08:10.391Z,101212.21
2018-12-31T17:10:36.502Z,101200.53
2018-12-31T17:13:02.614Z,101203.15
2018-12-31T17:15:28.702Z,101211.49
2018-12-31T17:17:54.803Z,101208.53
2018-12-31T17:20:20.878Z,101210.28
2018-12-31T17:22:47.396Z,101202.98
2018-12-31T17:25:13.836Z,101210.17
2018-12-31T17:27:40.065Z,101201.97
2018-12-31T17:30:06.429Z,101202.92
2018-12-31T17:32:32.814Z,101195.93
2018-12-31T17:34:59.264Z,101201.02
2018-12-31T17:37:25.334Z,101200.56
2018-12-31T17:39:54.759Z,101205.94
2018-12-31T17:42:21.136Z,101212.50
2018-12-31T17:44:47.740Z,101209.80
2018-12-31T17:47:14.189Z,101210.63
2018-12-31T17:49:40.319Z,101209.70
2018-12-31T17:52:06.797Z,101210.02
2018-12-31T17:54:33.290Z,101204.13
2018-12-31T17:56:59.888Z,101207.11
2018-12-31T17:59:25.959Z,101200.50
2018-12-31T18:01:51.985Z,101198.20
2018-12-31T18:04:18.373Z,101200.36
2018-12-31T18:06:44.442Z,101190.23
2018-12-31T18:09:11.214Z,101194.29
2018-12-31T18:11:37.687Z,101192.48
2018-12-31T18:14:03.943Z,101193.40
2018-12-31T18:16:30.311Z,101188.16
2018-12-31T18:18:56.410Z,101178.98
2018-12-31T18:21:22.958Z,101173.92
2018-12-31T18:23:49.457Z,101180.62
2018-12-31T18:26:15.535Z,101185.80
2018-12-31T18:28:41.670Z,101183.33
2018-12-31T18:31:07.978Z,101187.85
2018-12-31T18:33:34.081Z,101190.92
2018-12-31T18:36:00.176Z,101187.64
2018-12-31T18:38:26.253Z,101189.72
2018-12-31T18:40:52.344Z,101185.41
2018-12-31T18:43:18.532Z,101187.33
2018-12-31T18:45:46.143Z,101192.88
2018-12-31T18:48:14.621Z,101188.36
2018-12-31T18:50:40.687Z,101190.55
2018-12-31T18:53:06.879Z,101187.13
2018-12-31T18:55:33.599Z,101190.92
2018-12-31T18:58:00.058Z,101190.17
2018-12-31T19:00:26.129Z,101186.97
2018-12-31T19:02:52.251Z,101190.17
2018-12-31T19:05:19.635Z,101186.83
2018-12-31T19:07:45.706Z,101195.72
2018-12-31T19:10:13.226Z,101202.83
2018-12-31T19:12:39.313Z,101203.15
2018-12-31T19:15:07.934Z,101204.21
2018-12-31T19:17:34.098Z,101205.48
2018-12-31T19:20:00.200Z,101208.14
2018-12-31T19:22:28.266Z,101202.41
2018-12-31T19:24:54.027Z,101197.61
2018-12-31T19:27:20.469Z,101199.31
2018-12-31T19:29:46.801Z,101192.70
2018-12-31T19:32:12.869Z,101187.78
2018-12-31T19:34:39.346Z,101180.94
2018-12-31T19:37:05.966Z,101165.02
2018-12-31T19:39:32.555Z,101167.44
2018-12-31T19:41:58.722Z,101163.34
2018-12-31T19:44:24.743Z,101170.11
2018-12-31T19:46:51.270Z,101168.71
2018-12-31T19:49:17.734Z,101170.24
2018-12-31T19:51:44.251Z,101170.30
2018-12-31T19:54:10.436Z,101169.95
2018-12-31T19:56:36.803Z,101176.84
2018-12-31T19:59:04.058Z,101175.17
2018-12-31T20:01:30.180Z,101173.09
2018-12-31T20:03:56.266Z,101171.83
2018-12-31T20:06:22.370Z,101173.47
2018-12-31T20:08:48.763Z,101165.87
2018-12-31T20:11:15.129Z,101164.12
2018-12-31T20:13:41.265Z,101169.30
2018-12-31T20:16:07.511Z,101168.49
2018-12-31T20:18:33.582Z,101163.86
2018-12-31T20:21:00.209Z,101165.63
2018-12-31T20:23:26.337Z,101166.09
2018-12-31T20:25:52.775Z,101160.62
2018-12-31T20:28:19.398Z,101165.02
2018-12-31T20:30:45.524Z,101162.11
2018-12-31T20:33:12.233Z,101165.25
2018-12-31T20:35:38.673Z,101159.63
2018-12-31T20:38:05.016Z,101155.93
2018-12-31T20:40:31.586Z,101157.15
2018-12-31T20:42:57.703Z,101146.97
2018-12-31T20:45:23.783Z,101144.33
2018-12-31T20:47:50.261Z,101153.27
2018-12-31T20:50:16.617Z,101143.92
2018-12-31T20:52:42.648Z,101147.11
2018-12-31T20:55:08.731Z,101144.41
2018-12-31T20:57:35.290Z,101142.89
2018-12-31T21:00:01.409Z,101141.69
2018-12-31T21:02:27.949Z,101137.54
2018-12-31T21:04:54.284Z,101134.73
2018-12-31T21:07:20.430Z,101133.52
2018-12-31T21:09:46.538Z,101138.16
2018-12-31T21:12:12.713Z,101142.70
2018-12-31T21:14:38.862Z,101138.72
2018-12-31T21:17:05.313Z,101137.78
2018-12-31T21:19:32.172Z,101141.09
2018-12-31T21:21:58.306Z,101141.75
2018-12-31T21:24:24.411Z,101135.95
2018-12-31T21:26:50.500Z,101135.02
2018-12-31T21:29:16.596Z,101134.78
2018-12-31T21:31:42.717Z,101126.05
2018-12-31T21:34:09.246Z,101126.47
2018-12-31T21:36:35.882Z,101126.37
2018-12-31T21:39:01.991Z,101123.52
2018-12-31T21:41:28.313Z,101120.42
2018-12-31T21:43:54.638Z,101119.27
2018-12-31T21:46:20.706Z,101117.99
2018-12-31T21:48:46.839Z,101117.61
2018-12-31T21:51:13.277Z,101122.42
2018-12-31T21:53:39.353Z,101115.27
2018-12-31T21:56:05.531Z,101112.83
2018-12-31T21:58:31.908Z,101113.16
2018-12-31T22:00:58.070Z,101102.66
2018-12-31T22:03:24.177Z,101104.39
2018-12-31T22:05:50.531Z,101100.42
2018-12-31T22:08:17.493Z,101099.79
2018-12-31T22:10:43.776Z,101094.44
2018-12-31T22:13:10.135Z,101097.83
2018-12-31T22:15:36.476Z,101084.19
2018-12-31T22:18:02.880Z,101082.58
2018-12-31T22:20:29.453Z,101088.13
2018-12-31T22:22:55.635Z,101084.40
2018-12-31T22:25:22.013Z,101081.80
2018-12-31T22:27:48.360Z,101080.60
2018-12-31T22:30:14.501Z,101079.62
2018-12-31T22:32:40.549Z,101065.91
2018-12-31T22:35:06.919Z,101066.65
2018-12-31T22:37:32.950Z,101064.64
2018-12-31T22:39:59.858Z,101055.77
2018-12-31T22:42:27.623Z,101049.53
2018-12-31T22:44:55.265Z,101045.26
2018-12-31T22:47:21.606Z,101047.98
2018-12-31T22:49:47.796Z,101050.55
2018-12-31T22:52:14.073Z,101045.48
2018-12-31T22:54:40.570Z,101042.56
2018-12-31T22:58:55.790Z,101037.81
2018-12-31T23:01:22.693Z,101028.49
2018-12-31T23:03:52.200Z,101033.48
2018-12-31T23:06:19.176Z,101022.12
2018-12-31T23:08:46.140Z,101023.55
2018-12-31T23:11:14.563Z,101030.03
2018-12-31T23:13:41.516Z,101027.84
2018-12-31T23:16:08.997Z,101019.98
2018-12-31T23:18:37.512Z,101011.64
2018-12-31T23:21:04.547Z,100997.77
2018-12-31T23:23:31.510Z,100994.83
2018-12-31T23:25:59.166Z,100991.45
2018-12-31T23:28:26.378Z,100995.60
2018-12-31T23:30:53.653Z,100997.36
2018-12-31T23:33:20.888Z,100989.37
2018-12-31T23:35:48.092Z,100991.33
2018-12-31T23:38:15.072Z,100989.98
2018-12-31T23:40:42.023Z,100990.30
2018-12-31T23:43:09.440Z,100986.42
2018-12-31T23:45:36.809Z,100986.81
2018-12-31T23:48:04.049Z,100986.15
2018-12-31T23:50:31.013Z,100991.11
2018-12-31T23:52:57.983Z,100984.33
2018-12-31T23:55:28.241Z,100985.50
2018-12-31T23:57:57.359Z,100980.89
